sensor_id;sensor_type;location;lat;lon;timestamp;P1;durP1;ratioP1;P2;durP2;ratioP2
40044;SDS011;25735;48.122;11.422;2023-04-08T00:00:52;10.05;;;7.75;;
40044;SDS011;25735;48.122;11.422;2023-04-08T00:03:17;10.70;;;8.17;;
40044;SDS011;25735;48.122;11.422;2023-04-08T00:05:42;9.20;;;7.22;;
40044;SDS011;25735;48.122;11.422;2023-04-08T00:08:07;9.75;;;7.15;;
40044;SDS011;25735;48.122;11.422;2023-04-08T00:10:32;9.52;;;7.03;;
40044;SDS011;25735;48.122;11.422;2023-04-08T00:12:58;9.90;;;7.20;;
40044;SDS011;25735;48.122;11.422;2023-04-08T00:15:24;10.57;;;7.25;;
40044;SDS011;25735;48.122;11.422;2023-04-08T00:17:50;8.80;;;6.85;;
40044;SDS011;25735;48.122;11.422;2023-04-08T00:20:15;8.53;;;7.03;;
40044;SDS011;25735;48.122;11.422;2023-04-08T00:22:40;9.20;;;7.25;;
40044;SDS011;25735;48.122;11.422;2023-04-08T00:25:06;10.47;;;7.57;;
40044;SDS011;25735;48.122;11.422;2023-04-08T00:27:33;9.85;;;7.22;;
40044;SDS011;25735;48.122;11.422;2023-04-08T00:29:58;12.00;;;7.10;;
40044;SDS011;25735;48.122;11.422;2023-04-08T00:32:27;9.13;;;6.95;;
40044;SDS011;25735;48.122;11.422;2023-04-08T00:34:53;10.07;;;7.13;;
40044;SDS011;25735;48.122;11.422;2023-04-08T00:37:18;10.80;;;7.67;;
40044;SDS011;25735;48.122;11.422;2023-04-08T00:39:43;9.73;;;6.80;;
40044;SDS011;25735;48.122;11.422;2023-04-08T00:42:08;7.95;;;6.65;;
40044;SDS011;25735;48.122;11.422;2023-04-08T00:44:33;11.90;;;8.00;;
40044;SDS011;25735;48.122;11.422;2023-04-08T00:46:59;8.63;;;6.68;;
40044;SDS011;25735;48.122;11.422;2023-04-08T00:49:24;7.78;;;6.50;;
40044;SDS011;25735;48.122;11.422;2023-04-08T00:51:50;11.07;;;6.05;;
40044;SDS011;25735;48.122;11.422;2023-04-08T00:54:15;11.18;;;8.13;;
40044;SDS011;25735;48.122;11.422;2023-04-08T00:56:40;9.93;;;7.37;;
40044;SDS011;25735;48.122;11.422;2023-04-08T00:59:07;10.57;;;7.30;;
40044;SDS011;25735;48.122;11.422;2023-04-08T01:04:21;8.80;;;6.87;;
40044;SDS011;25735;48.122;11.422;2023-04-08T01:06:49;9.80;;;6.60;;
40044;SDS011;25735;48.122;11.422;2023-04-08T01:09:17;9.45;;;6.50;;
40044;SDS011;25735;48.122;11.422;2023-04-08T01:11:43;11.20;;;7.55;;
40044;SDS011;25735;48.122;11.422;2023-04-08T01:14:10;10.68;;;7.47;;
40044;SDS011;25735;48.122;11.422;2023-04-08T01:16:39;11.80;;;7.70;;
40044;SDS011;25735;48.122;11.422;2023-04-08T01:19:05;8.93;;;7.05;;
40044;SDS011;25735;48.122;11.422;2023-04-08T01:21:32;10.27;;;7.70;;
40044;SDS011;25735;48.122;11.422;2023-04-08T01:24:05;9.05;;;6.97;;
40044;SDS011;25735;48.122;11.422;2023-04-08T01:26:30;8.90;;;6.97;;
40044;SDS011;25735;48.122;11.422;2023-04-08T01:28:57;10.20;;;7.88;;
40044;SDS011;25735;48.122;11.422;2023-04-08T01:31:23;11.23;;;7.90;;
40044;SDS011;25735;48.122;11.422;2023-04-08T01:33:49;9.25;;;7.10;;
40044;SDS011;25735;48.122;11.422;2023-04-08T01:36:15;11.55;;;8.18;;
40044;SDS011;25735;48.122;11.422;2023-04-08T01:38:41;10.95;;;6.93;;
40044;SDS011;25735;48.122;11.422;2023-04-08T01:41:07;10.30;;;8.15;;
40044;SDS011;25735;48.122;11.422;2023-04-08T01:43:34;10.50;;;7.50;;
40044;SDS011;25735;48.122;11.422;2023-04-08T01:46:00;12.10;;;7.97;;
40044;SDS011;25735;48.122;11.422;2023-04-08T01:48:26;12.52;;;8.43;;
40044;SDS011;25735;48.122;11.422;2023-04-08T01:50:51;14.30;;;8.30;;
40044;SDS011;25735;48.122;11.422;2023-04-08T01:53:17;12.02;;;8.02;;
40044;SDS011;25735;48.122;11.422;2023-04-08T01:55:42;10.73;;;7.60;;
40044;SDS011;25735;48.122;11.422;2023-04-08T01:58:10;12.57;;;8.88;;
40044;SDS011;25735;48.122;11.422;2023-04-08T02:00:35;11.02;;;7.93;;
40044;SDS011;25735;48.122;11.422;2023-04-08T02:03:02;10.82;;;8.50;;
40044;SDS011;25735;48.122;11.422;2023-04-08T02:05:30;11.52;;;9.02;;
40044;SDS011;25735;48.122;11.422;2023-04-08T02:07:55;11.18;;;8.00;;
40044;SDS011;25735;48.122;11.422;2023-04-08T02:10:20;11.15;;;8.75;;
40044;SDS011;25735;48.122;11.422;2023-04-08T02:12:45;12.45;;;8.85;;
40044;SDS011;25735;48.122;11.422;2023-04-08T02:15:11;11.20;;;7.75;;
40044;SDS011;25735;48.122;11.422;2023-04-08T02:20:30;11.68;;;7.82;;
40044;SDS011;25735;48.122;11.422;2023-04-08T02:22:58;15.60;;;8.65;;
40044;SDS011;25735;48.122;11.422;2023-04-08T02:25:24;13.70;;;9.93;;
40044;SDS011;25735;48.122;11.422;2023-04-08T02:27:53;12.48;;;8.80;;
40044;SDS011;25735;48.122;11.422;2023-04-08T02:30:19;14.15;;;9.82;;
40044;SDS011;25735;48.122;11.422;2023-04-08T02:32:45;11.73;;;8.77;;
40044;SDS011;25735;48.122;11.422;2023-04-08T02:35:11;14.68;;;9.95;;
40044;SDS011;25735;48.122;11.422;2023-04-08T02:37:36;15.07;;;9.30;;
40044;SDS011;25735;48.122;11.422;2023-04-08T02:40:02;15.55;;;9.90;;
40044;SDS011;25735;48.122;11.422;2023-04-08T02:42:27;12.88;;;9.10;;
40044;SDS011;25735;48.122;11.422;2023-04-08T02:44:52;14.97;;;10.53;;
40044;SDS011;25735;48.122;11.422;2023-04-08T02:47:17;14.87;;;10.07;;
40044;SDS011;25735;48.122;11.422;2023-04-08T02:49:43;13.63;;;9.97;;
40044;SDS011;25735;48.122;11.422;2023-04-08T02:52:08;13.10;;;9.53;;
40044;SDS011;25735;48.122;11.422;2023-04-08T02:54:33;13.53;;;10.03;;
40044;SDS011;25735;48.122;11.422;2023-04-08T02:56:58;14.68;;;9.68;;
40044;SDS011;25735;48.122;11.422;2023-04-08T02:59:24;15.95;;;10.48;;
40044;SDS011;25735;48.122;11.422;2023-04-08T03:01:49;14.45;;;9.90;;
40044;SDS011;25735;48.122;11.422;2023-04-08T03:04:15;14.73;;;9.40;;
40044;SDS011;25735;48.122;11.422;2023-04-08T03:06:40;15.07;;;10.45;;
40044;SDS011;25735;48.122;11.422;2023-04-08T03:09:05;14.20;;;10.63;;
40044;SDS011;25735;48.122;11.422;2023-04-08T03:11:31;14.82;;;10.75;;
40044;SDS011;25735;48.122;11.422;2023-04-08T03:13:56;13.27;;;9.93;;
40044;SDS011;25735;48.122;11.422;2023-04-08T03:16:21;14.45;;;10.63;;
40044;SDS011;25735;48.122;11.422;2023-04-08T03:18:48;16.75;;;11.02;;
40044;SDS011;25735;48.122;11.422;2023-04-08T03:21:13;19.55;;;11.70;;
40044;SDS011;25735;48.122;11.422;2023-04-08T03:23:38;13.93;;;10.73;;
40044;SDS011;25735;48.122;11.422;2023-04-08T03:26:03;17.17;;;10.67;;
40044;SDS011;25735;48.122;11.422;2023-04-08T03:28:29;12.98;;;10.40;;
40044;SDS011;25735;48.122;11.422;2023-04-08T03:30:54;14.57;;;10.43;;
40044;SDS011;25735;48.122;11.422;2023-04-08T03:33:19;15.53;;;11.10;;
40044;SDS011;25735;48.122;11.422;2023-04-08T03:35:44;17.73;;;12.68;;
40044;SDS011;25735;48.122;11.422;2023-04-08T03:38:09;18.35;;;12.18;;
40044;SDS011;25735;48.122;11.422;2023-04-08T03:40:35;14.27;;;11.03;;
40044;SDS011;25735;48.122;11.422;2023-04-08T03:43:00;18.45;;;13.10;;
40044;SDS011;25735;48.122;11.422;2023-04-08T03:45:25;14.27;;;11.43;;
40044;SDS011;25735;48.122;11.422;2023-04-08T03:47:50;15.90;;;10.48;;
40044;SDS011;25735;48.122;11.422;2023-04-08T03:50:15;17.27;;;12.20;;
40044;SDS011;25735;48.122;11.422;2023-04-08T03:52:40;14.20;;;10.03;;
40044;SDS011;25735;48.122;11.422;2023-04-08T03:55:06;15.25;;;11.68;;
40044;SDS011;25735;48.122;11.422;2023-04-08T03:57:31;22.08;;;12.10;;
40044;SDS011;25735;48.122;11.422;2023-04-08T03:59:56;18.00;;;11.73;;
40044;SDS011;25735;48.122;11.422;2023-04-08T04:02:21;16.08;;;11.40;;
40044;SDS011;25735;48.122;11.422;2023-04-08T04:04:47;16.83;;;11.93;;
40044;SDS011;25735;48.122;11.422;2023-04-08T04:07:12;16.47;;;11.80;;
40044;SDS011;25735;48.122;11.422;2023-04-08T04:09:37;17.27;;;12.43;;
40044;SDS011;25735;48.122;11.422;2023-04-08T04:12:02;16.93;;;12.03;;
40044;SDS011;25735;48.122;11.422;2023-04-08T04:14:27;18.13;;;11.80;;
40044;SDS011;25735;48.122;11.422;2023-04-08T04:16:52;16.77;;;12.90;;
40044;SDS011;25735;48.122;11.422;2023-04-08T04:19:18;16.05;;;11.65;;
40044;SDS011;25735;48.122;11.422;2023-04-08T04:21:43;19.17;;;13.98;;
40044;SDS011;25735;48.122;11.422;2023-04-08T04:24:08;17.15;;;11.98;;
40044;SDS011;25735;48.122;11.422;2023-04-08T04:26:33;15.63;;;11.70;;
40044;SDS011;25735;48.122;11.422;2023-04-08T04:28:58;16.03;;;12.63;;
40044;SDS011;25735;48.122;11.422;2023-04-08T04:31:24;19.10;;;12.85;;
40044;SDS011;25735;48.122;11.422;2023-04-08T04:33:53;17.05;;;12.88;;
40044;SDS011;25735;48.122;11.422;2023-04-08T04:36:18;18.08;;;12.88;;
40044;SDS011;25735;48.122;11.422;2023-04-08T04:38:43;16.80;;;12.32;;
40044;SDS011;25735;48.122;11.422;2023-04-08T04:41:09;18.92;;;14.18;;
40044;SDS011;25735;48.122;11.422;2023-04-08T04:43:34;16.70;;;12.80;;
40044;SDS011;25735;48.122;11.422;2023-04-08T04:45:59;16.30;;;12.80;;
40044;SDS011;25735;48.122;11.422;2023-04-08T04:48:26;16.58;;;12.75;;
40044;SDS011;25735;48.122;11.422;2023-04-08T04:50:57;17.87;;;13.00;;
40044;SDS011;25735;48.122;11.422;2023-04-08T04:53:22;17.35;;;12.98;;
40044;SDS011;25735;48.122;11.422;2023-04-08T04:55:48;17.20;;;13.13;;
40044;SDS011;25735;48.122;11.422;2023-04-08T04:58:13;15.82;;;12.93;;
40044;SDS011;25735;48.122;11.422;2023-04-08T05:00:38;15.77;;;12.60;;
40044;SDS011;25735;48.122;11.422;2023-04-08T05:03:04;17.63;;;12.40;;
40044;SDS011;25735;48.122;11.422;2023-04-08T05:05:29;18.38;;;13.65;;
40044;SDS011;25735;48.122;11.422;2023-04-08T05:07:54;18.47;;;13.20;;
40044;SDS011;25735;48.122;11.422;2023-04-08T05:10:19;16.50;;;11.67;;
40044;SDS011;25735;48.122;11.422;2023-04-08T05:12:45;16.88;;;11.27;;
40044;SDS011;25735;48.122;11.422;2023-04-08T05:15:10;15.98;;;12.55;;
40044;SDS011;25735;48.122;11.422;2023-04-08T05:17:35;14.40;;;11.00;;
40044;SDS011;25735;48.122;11.422;2023-04-08T05:20:00;16.73;;;12.07;;
40044;SDS011;25735;48.122;11.422;2023-04-08T05:22:26;17.67;;;12.77;;
40044;SDS011;25735;48.122;11.422;2023-04-08T05:24:51;16.67;;;12.68;;
40044;SDS011;25735;48.122;11.422;2023-04-08T05:27:16;15.48;;;12.00;;
40044;SDS011;25735;48.122;11.422;2023-04-08T05:29:41;15.45;;;12.07;;
40044;SDS011;25735;48.122;11.422;2023-04-08T05:32:07;15.68;;;11.15;;
40044;SDS011;25735;48.122;11.422;2023-04-08T05:34:32;15.65;;;11.52;;
40044;SDS011;25735;48.122;11.422;2023-04-08T05:36:57;14.82;;;11.70;;
40044;SDS011;25735;48.122;11.422;2023-04-08T05:39:22;14.23;;;11.30;;
40044;SDS011;25735;48.122;11.422;2023-04-08T05:41:47;16.85;;;12.20;;
40044;SDS011;25735;48.122;11.422;2023-04-08T05:44:12;14.48;;;12.00;;
40044;SDS011;25735;48.122;11.422;2023-04-08T05:46:38;11.95;;;10.20;;
40044;SDS011;25735;48.122;11.422;2023-04-08T05:49:03;13.38;;;11.07;;
40044;SDS011;25735;48.122;11.422;2023-04-08T05:51:28;18.20;;;10.90;;
40044;SDS011;25735;48.122;11.422;2023-04-08T05:53:53;12.67;;;10.57;;
40044;SDS011;25735;48.122;11.422;2023-04-08T05:56:19;12.57;;;10.05;;
40044;SDS011;25735;48.122;11.422;2023-04-08T05:58:44;13.32;;;10.40;;
40044;SDS011;25735;48.122;11.422;2023-04-08T06:01:10;12.80;;;10.23;;
40044;SDS011;25735;48.122;11.422;2023-04-08T06:03:35;10.70;;;9.05;;
40044;SDS011;25735;48.122;11.422;2023-04-08T06:06:01;12.80;;;10.55;;
40044;SDS011;25735;48.122;11.422;2023-04-08T06:08:27;11.50;;;8.75;;
40044;SDS011;25735;48.122;11.422;2023-04-08T06:10:52;11.15;;;8.68;;
40044;SDS011;25735;48.122;11.422;2023-04-08T06:13:17;10.45;;;9.35;;
40044;SDS011;25735;48.122;11.422;2023-04-08T06:15:44;10.70;;;8.95;;
40044;SDS011;25735;48.122;11.422;2023-04-08T06:18:09;11.07;;;9.15;;
40044;SDS011;25735;48.122;11.422;2023-04-08T06:20:34;11.57;;;9.43;;
40044;SDS011;25735;48.122;11.422;2023-04-08T06:23:00;10.40;;;8.98;;
40044;SDS011;25735;48.122;11.422;2023-04-08T06:25:25;12.77;;;9.38;;
40044;SDS011;25735;48.122;11.422;2023-04-08T06:27:51;12.00;;;9.70;;
40044;SDS011;25735;48.122;11.422;2023-04-08T06:30:16;10.38;;;9.02;;
40044;SDS011;25735;48.122;11.422;2023-04-08T06:32:41;11.18;;;9.77;;
40044;SDS011;25735;48.122;11.422;2023-04-08T06:35:06;12.90;;;9.07;;
40044;SDS011;25735;48.122;11.422;2023-04-08T06:37:32;16.00;;;10.18;;
40044;SDS011;25735;48.122;11.422;2023-04-08T06:39:58;10.50;;;9.27;;
40044;SDS011;25735;48.122;11.422;2023-04-08T06:42:23;11.63;;;9.53;;
40044;SDS011;25735;48.122;11.422;2023-04-08T06:44:48;13.05;;;10.10;;
40044;SDS011;25735;48.122;11.422;2023-04-08T06:47:13;11.20;;;8.73;;
40044;SDS011;25735;48.122;11.422;2023-04-08T06:49:39;12.27;;;9.35;;
40044;SDS011;25735;48.122;11.422;2023-04-08T06:52:05;11.63;;;9.23;;
40044;SDS011;25735;48.122;11.422;2023-04-08T06:54:30;12.65;;;9.50;;
40044;SDS011;25735;48.122;11.422;2023-04-08T06:56:56;13.93;;;10.25;;
40044;SDS011;25735;48.122;11.422;2023-04-08T06:59:21;15.52;;;11.98;;
40044;SDS011;25735;48.122;11.422;2023-04-08T07:01:46;14.68;;;11.50;;
40044;SDS011;25735;48.122;11.422;2023-04-08T07:04:11;16.30;;;11.80;;
40044;SDS011;25735;48.122;11.422;2023-04-08T07:06:36;17.27;;;13.13;;
40044;SDS011;25735;48.122;11.422;2023-04-08T07:09:01;14.77;;;11.87;;
40044;SDS011;25735;48.122;11.422;2023-04-08T07:11:27;17.33;;;13.37;;
40044;SDS011;25735;48.122;11.422;2023-04-08T07:13:52;15.90;;;12.93;;
40044;SDS011;25735;48.122;11.422;2023-04-08T07:16:17;17.98;;;13.60;;
40044;SDS011;25735;48.122;11.422;2023-04-08T07:18:42;18.17;;;13.98;;
40044;SDS011;25735;48.122;11.422;2023-04-08T07:21:07;17.13;;;14.00;;
40044;SDS011;25735;48.122;11.422;2023-04-08T07:23:33;19.60;;;13.97;;
40044;SDS011;25735;48.122;11.422;2023-04-08T07:26:04;16.40;;;13.23;;
40044;SDS011;25735;48.122;11.422;2023-04-08T07:28:29;17.17;;;14.82;;
40044;SDS011;25735;48.122;11.422;2023-04-08T07:30:55;15.93;;;13.30;;
40044;SDS011;25735;48.122;11.422;2023-04-08T07:33:20;19.73;;;13.85;;
40044;SDS011;25735;48.122;11.422;2023-04-08T07:35:45;17.37;;;14.27;;
40044;SDS011;25735;48.122;11.422;2023-04-08T07:38:10;16.58;;;13.48;;
40044;SDS011;25735;48.122;11.422;2023-04-08T07:40:37;19.42;;;13.38;;
40044;SDS011;25735;48.122;11.422;2023-04-08T07:43:02;18.52;;;13.57;;
40044;SDS011;25735;48.122;11.422;2023-04-08T07:45:27;17.98;;;14.15;;
40044;SDS011;25735;48.122;11.422;2023-04-08T07:47:52;15.02;;;12.25;;
40044;SDS011;25735;48.122;11.422;2023-04-08T07:50:18;16.45;;;12.45;;
40044;SDS011;25735;48.122;11.422;2023-04-08T07:52:43;16.50;;;13.17;;
40044;SDS011;25735;48.122;11.422;2023-04-08T07:55:08;15.38;;;12.00;;
40044;SDS011;25735;48.122;11.422;2023-04-08T07:57:33;17.38;;;13.65;;
40044;SDS011;25735;48.122;11.422;2023-04-08T07:59:58;17.27;;;11.30;;
40044;SDS011;25735;48.122;11.422;2023-04-08T08:02:24;13.40;;;10.57;;
40044;SDS011;25735;48.122;11.422;2023-04-08T08:04:49;13.90;;;10.93;;
40044;SDS011;25735;48.122;11.422;2023-04-08T08:07:15;11.77;;;9.23;;
40044;SDS011;25735;48.122;11.422;2023-04-08T08:09:40;14.95;;;12.43;;
40044;SDS011;25735;48.122;11.422;2023-04-08T08:12:05;15.07;;;11.20;;
40044;SDS011;25735;48.122;11.422;2023-04-08T08:14:30;14.02;;;11.70;;
40044;SDS011;25735;48.122;11.422;2023-04-08T08:16:55;11.80;;;8.90;;
40044;SDS011;25735;48.122;11.422;2023-04-08T08:19:21;12.70;;;10.10;;
40044;SDS011;25735;48.122;11.422;2023-04-08T08:21:46;14.52;;;9.07;;
40044;SDS011;25735;48.122;11.422;2023-04-08T08:24:11;12.80;;;9.57;;
40044;SDS011;25735;48.122;11.422;2023-04-08T08:26:36;13.30;;;10.53;;
40044;SDS011;25735;48.122;11.422;2023-04-08T08:29:02;13.55;;;10.80;;
40044;SDS011;25735;48.122;11.422;2023-04-08T08:31:27;13.45;;;10.40;;
40044;SDS011;25735;48.122;11.422;2023-04-08T08:33:52;15.23;;;10.90;;
40044;SDS011;25735;48.122;11.422;2023-04-08T08:36:17;15.63;;;12.02;;
40044;SDS011;25735;48.122;11.422;2023-04-08T08:38:43;13.88;;;11.00;;
40044;SDS011;25735;48.122;11.422;2023-04-08T08:41:08;13.82;;;10.95;;
40044;SDS011;25735;48.122;11.422;2023-04-08T08:43:33;12.88;;;10.57;;
40044;SDS011;25735;48.122;11.422;2023-04-08T08:45:58;16.98;;;13.07;;
40044;SDS011;25735;48.122;11.422;2023-04-08T08:48:24;18.10;;;13.45;;
40044;SDS011;25735;48.122;11.422;2023-04-08T08:50:49;14.73;;;11.63;;
40044;SDS011;25735;48.122;11.422;2023-04-08T08:53:15;16.50;;;12.48;;
40044;SDS011;25735;48.122;11.422;2023-04-08T08:55:40;15.95;;;12.25;;
40044;SDS011;25735;48.122;11.422;2023-04-08T08:58:05;15.85;;;11.88;;
40044;SDS011;25735;48.122;11.422;2023-04-08T09:00:34;15.18;;;11.70;;
40044;SDS011;25735;48.122;11.422;2023-04-08T09:03:13;15.60;;;12.10;;
40044;SDS011;25735;48.122;11.422;2023-04-08T09:08:26;14.38;;;10.77;;
40044;SDS011;25735;48.122;11.422;2023-04-08T09:10:53;17.25;;;13.57;;
40044;SDS011;25735;48.122;11.422;2023-04-08T09:13:18;16.23;;;13.30;;
40044;SDS011;25735;48.122;11.422;2023-04-08T09:18:30;18.85;;;13.27;;
40044;SDS011;25735;48.122;11.422;2023-04-08T09:20:56;20.67;;;15.38;;
40044;SDS011;25735;48.122;11.422;2023-04-08T09:23:21;22.08;;;16.27;;
40044;SDS011;25735;48.122;11.422;2023-04-08T09:25:46;16.20;;;12.43;;
40044;SDS011;25735;48.122;11.422;2023-04-08T09:28:18;19.60;;;13.93;;
40044;SDS011;25735;48.122;11.422;2023-04-08T09:30:44;18.73;;;12.88;;
40044;SDS011;25735;48.122;11.422;2023-04-08T09:33:09;20.15;;;15.10;;
40044;SDS011;25735;48.122;11.422;2023-04-08T09:35:34;17.95;;;13.93;;
40044;SDS011;25735;48.122;11.422;2023-04-08T09:38:00;18.52;;;14.60;;
40044;SDS011;25735;48.122;11.422;2023-04-08T09:40:26;15.05;;;11.65;;
40044;SDS011;25735;48.122;11.422;2023-04-08T09:42:51;17.33;;;11.57;;
40044;SDS011;25735;48.122;11.422;2023-04-08T09:45:18;15.25;;;11.18;;
40044;SDS011;25735;48.122;11.422;2023-04-08T09:48:30;19.67;;;12.73;;
40044;SDS011;25735;48.122;11.422;2023-04-08T09:50:30;18.00;;;12.32;;
40044;SDS011;25735;48.122;11.422;2023-04-08T09:52:59;18.60;;;12.57;;
40044;SDS011;25735;48.122;11.422;2023-04-08T09:55:25;18.58;;;14.35;;
40044;SDS011;25735;48.122;11.422;2023-04-08T09:57:54;13.75;;;11.27;;
40044;SDS011;25735;48.122;11.422;2023-04-08T10:00:27;16.55;;;12.88;;
40044;SDS011;25735;48.122;11.422;2023-04-08T10:03:01;17.98;;;12.38;;
40044;SDS011;25735;48.122;11.422;2023-04-08T10:05:30;17.05;;;13.80;;
40044;SDS011;25735;48.122;11.422;2023-04-08T10:07:56;19.83;;;13.80;;
40044;SDS011;25735;48.122;11.422;2023-04-08T10:10:21;15.45;;;12.10;;
40044;SDS011;25735;48.122;11.422;2023-04-08T10:12:47;16.95;;;12.38;;
40044;SDS011;25735;48.122;11.422;2023-04-08T10:15:23;18.33;;;12.15;;
40044;SDS011;25735;48.122;11.422;2023-04-08T10:17:49;14.85;;;12.05;;
40044;SDS011;25735;48.122;11.422;2023-04-08T10:22:58;15.70;;;10.35;;
40044;SDS011;25735;48.122;11.422;2023-04-08T10:25:27;14.30;;;12.75;;
40044;SDS011;25735;48.122;11.422;2023-04-08T10:27:53;15.38;;;13.10;;
40044;SDS011;25735;48.122;11.422;2023-04-08T10:32:53;14.13;;;11.50;;
40044;SDS011;25735;48.122;11.422;2023-04-08T10:35:29;16.42;;;12.52;;
40044;SDS011;25735;48.122;11.422;2023-04-08T10:37:58;14.85;;;12.45;;
40044;SDS011;25735;48.122;11.422;2023-04-08T10:40:23;16.45;;;12.98;;
40044;SDS011;25735;48.122;11.422;2023-04-08T10:43:07;15.68;;;12.02;;
40044;SDS011;25735;48.122;11.422;2023-04-08T10:45:32;14.10;;;11.65;;
40044;SDS011;25735;48.122;11.422;2023-04-08T10:50:35;14.07;;;11.25;;
40044;SDS011;25735;48.122;11.422;2023-04-08T10:53:00;15.50;;;12.27;;
40044;SDS011;25735;48.122;11.422;2023-04-08T10:55:26;15.60;;;12.63;;
40044;SDS011;25735;48.122;11.422;2023-04-08T10:57:54;14.57;;;11.63;;
40044;SDS011;25735;48.122;11.422;2023-04-08T11:00:31;15.27;;;12.75;;
40044;SDS011;25735;48.122;11.422;2023-04-08T11:02:59;14.60;;;10.85;;
40044;SDS011;25735;48.122;11.422;2023-04-08T11:05:25;16.60;;;12.68;;
40044;SDS011;25735;48.122;11.422;2023-04-08T11:07:51;16.10;;;12.90;;
40044;SDS011;25735;48.122;11.422;2023-04-08T11:10:16;15.18;;;11.88;;
40044;SDS011;25735;48.122;11.422;2023-04-08T11:12:41;17.50;;;13.30;;
40044;SDS011;25735;48.122;11.422;2023-04-08T11:15:07;17.90;;;13.35;;
40044;SDS011;25735;48.122;11.422;2023-04-08T11:17:33;14.77;;;13.00;;
40044;SDS011;25735;48.122;11.422;2023-04-08T11:19:58;15.25;;;13.18;;
40044;SDS011;25735;48.122;11.422;2023-04-08T11:22:26;14.45;;;11.90;;
40044;SDS011;25735;48.122;11.422;2023-04-08T11:24:52;16.13;;;12.52;;
40044;SDS011;25735;48.122;11.422;2023-04-08T11:27:17;15.07;;;12.07;;
40044;SDS011;25735;48.122;11.422;2023-04-08T11:29:42;16.42;;;13.07;;
40044;SDS011;25735;48.122;11.422;2023-04-08T11:32:08;16.58;;;13.85;;
40044;SDS011;25735;48.122;11.422;2023-04-08T11:34:37;15.75;;;12.98;;
40044;SDS011;25735;48.122;11.422;2023-04-08T11:37:02;18.52;;;12.27;;
40044;SDS011;25735;48.122;11.422;2023-04-08T11:39:28;17.30;;;11.90;;
40044;SDS011;25735;48.122;11.422;2023-04-08T11:41:53;14.90;;;10.70;;
40044;SDS011;25735;48.122;11.422;2023-04-08T11:44:19;14.15;;;10.80;;
40044;SDS011;25735;48.122;11.422;2023-04-08T11:46:51;14.25;;;11.95;;
40044;SDS011;25735;48.122;11.422;2023-04-08T11:49:19;13.40;;;11.23;;
40044;SDS011;25735;48.122;11.422;2023-04-08T11:51:54;14.77;;;11.82;;
40044;SDS011;25735;48.122;11.422;2023-04-08T11:54:26;13.90;;;10.40;;
40044;SDS011;25735;48.122;11.422;2023-04-08T11:56:52;14.57;;;12.07;;
40044;SDS011;25735;48.122;11.422;2023-04-08T11:59:18;15.55;;;12.13;;
40044;SDS011;25735;48.122;11.422;2023-04-08T12:01:43;14.10;;;11.77;;
40044;SDS011;25735;48.122;11.422;2023-04-08T12:04:09;15.23;;;12.73;;
40044;SDS011;25735;48.122;11.422;2023-04-08T12:06:34;18.27;;;14.23;;
40044;SDS011;25735;48.122;11.422;2023-04-08T12:09:00;16.77;;;12.80;;
40044;SDS011;25735;48.122;11.422;2023-04-08T12:11:25;15.48;;;12.90;;
40044;SDS011;25735;48.122;11.422;2023-04-08T12:13:50;14.68;;;12.70;;
40044;SDS011;25735;48.122;11.422;2023-04-08T12:16:16;16.48;;;13.45;;
40044;SDS011;25735;48.122;11.422;2023-04-08T12:18:41;14.02;;;12.02;;
40044;SDS011;25735;48.122;11.422;2023-04-08T12:21:07;15.35;;;13.10;;
40044;SDS011;25735;48.122;11.422;2023-04-08T12:23:32;14.63;;;12.13;;
40044;SDS011;25735;48.122;11.422;2023-04-08T12:25:57;15.30;;;12.38;;
40044;SDS011;25735;48.122;11.422;2023-04-08T12:28:22;15.83;;;12.93;;
40044;SDS011;25735;48.122;11.422;2023-04-08T12:30:47;16.60;;;14.18;;
40044;SDS011;25735;48.122;11.422;2023-04-08T12:33:12;13.55;;;11.43;;
40044;SDS011;25735;48.122;11.422;2023-04-08T12:35:38;17.27;;;13.07;;
40044;SDS011;25735;48.122;11.422;2023-04-08T12:38:03;16.63;;;11.95;;
40044;SDS011;25735;48.122;11.422;2023-04-08T12:40:28;14.75;;;12.43;;
40044;SDS011;25735;48.122;11.422;2023-04-08T12:42:53;16.53;;;11.57;;
40044;SDS011;25735;48.122;11.422;2023-04-08T12:45:18;14.52;;;11.82;;
40044;SDS011;25735;48.122;11.422;2023-04-08T12:47:43;15.20;;;12.18;;
40044;SDS011;25735;48.122;11.422;2023-04-08T12:50:09;14.05;;;12.48;;
40044;SDS011;25735;48.122;11.422;2023-04-08T12:52:34;14.48;;;11.05;;
40044;SDS011;25735;48.122;11.422;2023-04-08T12:54:59;15.90;;;12.77;;
40044;SDS011;25735;48.122;11.422;2023-04-08T12:57:25;19.33;;;12.63;;
40044;SDS011;25735;48.122;11.422;2023-04-08T12:59:51;15.48;;;12.70;;
40044;SDS011;25735;48.122;11.422;2023-04-08T13:02:16;13.43;;;11.10;;
40044;SDS011;25735;48.122;11.422;2023-04-08T13:04:41;15.52;;;12.73;;
40044;SDS011;25735;48.122;11.422;2023-04-08T13:07:06;16.67;;;13.13;;
40044;SDS011;25735;48.122;11.422;2023-04-08T13:09:31;14.40;;;12.90;;
40044;SDS011;25735;48.122;11.422;2023-04-08T13:11:56;15.27;;;13.13;;
40044;SDS011;25735;48.122;11.422;2023-04-08T13:14:22;14.70;;;12.63;;
40044;SDS011;25735;48.122;11.422;2023-04-08T13:16:47;14.73;;;12.60;;
40044;SDS011;25735;48.122;11.422;2023-04-08T13:19:12;18.02;;;14.50;;
40044;SDS011;25735;48.122;11.422;2023-04-08T13:21:37;15.20;;;12.77;;
40044;SDS011;25735;48.122;11.422;2023-04-08T13:24:02;15.65;;;12.20;;
40044;SDS011;25735;48.122;11.422;2023-04-08T13:26:28;15.40;;;13.43;;
40044;SDS011;25735;48.122;11.422;2023-04-08T13:28:53;19.65;;;13.82;;
40044;SDS011;25735;48.122;11.422;2023-04-08T13:31:18;13.68;;;11.75;;
40044;SDS011;25735;48.122;11.422;2023-04-08T13:33:43;16.83;;;13.20;;
40044;SDS011;25735;48.122;11.422;2023-04-08T13:36:08;14.40;;;12.02;;
40044;SDS011;25735;48.122;11.422;2023-04-08T13:38:33;13.73;;;11.43;;
40044;SDS011;25735;48.122;11.422;2023-04-08T13:41:00;16.17;;;13.40;;
40044;SDS011;25735;48.122;11.422;2023-04-08T13:43:25;16.23;;;10.02;;
40044;SDS011;25735;48.122;11.422;2023-04-08T13:45:51;13.45;;;10.25;;
40044;SDS011;25735;48.122;11.422;2023-04-08T13:48:16;15.23;;;11.60;;
40044;SDS011;25735;48.122;11.422;2023-04-08T13:50:41;11.80;;;9.50;;
40044;SDS011;25735;48.122;11.422;2023-04-08T13:53:07;11.52;;;9.63;;
40044;SDS011;25735;48.122;11.422;2023-04-08T13:55:32;11.25;;;9.13;;
40044;SDS011;25735;48.122;11.422;2023-04-08T13:57:57;11.87;;;9.13;;
40044;SDS011;25735;48.122;11.422;2023-04-08T14:00:23;13.75;;;11.48;;
40044;SDS011;25735;48.122;11.422;2023-04-08T14:02:49;13.75;;;10.55;;
40044;SDS011;25735;48.122;11.422;2023-04-08T14:05:15;14.25;;;10.93;;
40044;SDS011;25735;48.122;11.422;2023-04-08T14:07:40;13.35;;;10.05;;
40044;SDS011;25735;48.122;11.422;2023-04-08T14:10:05;12.45;;;10.75;;
40044;SDS011;25735;48.122;11.422;2023-04-08T14:12:31;12.93;;;9.75;;
40044;SDS011;25735;48.122;11.422;2023-04-08T14:14:56;14.90;;;11.13;;
40044;SDS011;25735;48.122;11.422;2023-04-08T14:17:21;11.63;;;9.45;;
40044;SDS011;25735;48.122;11.422;2023-04-08T14:19:47;11.23;;;9.35;;
40044;SDS011;25735;48.122;11.422;2023-04-08T14:22:12;13.70;;;10.80;;
40044;SDS011;25735;48.122;11.422;2023-04-08T14:24:38;12.13;;;10.05;;